Time;durP1;ratioP1;P1;durP2;ratioP2;P2;SDS_P1;SDS_P2;PMS_P1;PMS_P2;Temp;Humidity;BMP_temperature;BMP_pressure;BME280_temperature;BME280_humidity;BME280_pressure;Samples;Min_cycle;Max_cycle;Signal;HPM_P1;HPM_P2
2023/01/25 00:02:04;;;;;;;213.50;90.10;;;;;;;2.23;100.00;101684.09;5051208;28;20064;-73
2023/01/25 00:04:30;;;;;;;200.32;88.40;;;;;;;2.39;100.00;101690.38;5050313;28;20033;-73
2023/01/25 00:06:56;;;;;;;197.60;88.03;;;;;;;2.52;100.00;101695.75;5051123;28;20041;-73
2023/01/25 00:09:22;;;;;;;203.27;88.95;;;;;;;2.38;100.00;101685.22;5086347;28;20231;-72
2023/01/25 00:11:48;;;;;;;207.30;88.22;;;;;;;2.13;100.00;101682.16;5114330;28;20028;-73
2023/01/25 00:14:14;;;;;;;216.20;89.82;;;;;;;2.14;100.00;101665.88;5114238;28;20095;-73
2023/01/25 00:16:40;;;;;;;210.68;94.53;;;;;;;2.34;100.00;101689.44;5113782;28;20031;-73
2023/01/25 00:19:06;;;;;;;205.23;89.22;;;;;;;2.48;100.00;101685.41;5113964;28;20122;-73
2023/01/25 00:21:35;;;;;;;197.65;89.55;;;;;;;2.35;100.00;101672.28;5113384;28;20386;-73
2023/01/25 00:24:01;;;;;;;202.25;85.82;;;;;;;2.60;100.00;101687.34;5113914;28;20030;-73
2023/01/25 00:26:29;;;;;;;209.00;86.65;;;;;;;2.60;100.00;101655.63;5113687;28;20383;-73
2023/01/25 00:28:55;;;;;;;207.52;89.90;;;;;;;2.72;100.00;101660.97;5113578;28;20479;-73
2023/01/25 00:31:31;;;;;;;207.45;89.90;;;;;;;2.56;100.00;101648.69;5113391;28;20035;-73
2023/01/25 00:34:23;;;;;;;200.27;87.88;;;;;;;2.67;100.00;101668.63;5113393;28;20034;-73
2023/01/25 00:36:57;;;;;;;194.88;86.50;;;;;;;2.78;100.00;101667.94;5113551;28;20475;-73
2023/01/25 00:39:24;;;;;;;201.75;88.40;;;;;;;2.70;100.00;101673.81;5113361;27;20471;-73
2023/01/25 00:41:50;;;;;;;188.85;82.07;;;;;;;2.68;100.00;101642.03;5113444;28;20027;-73
2023/01/25 00:44:15;;;;;;;209.93;91.40;;;;;;;2.74;100.00;101659.31;5113282;28;20042;-74
2023/01/25 00:46:40;;;;;;;199.35;88.13;;;;;;;2.77;100.00;101659.34;5112870;28;20033;-73
2023/01/25 00:49:06;;;;;;;195.02;86.38;;;;;;;2.73;100.00;101649.84;5113518;28;20024;-73
2023/01/25 00:51:31;;;;;;;189.13;81.28;;;;;;;2.91;100.00;101668.19;5113335;28;20031;-73
2023/01/25 00:53:57;;;;;;;207.68;83.32;;;;;;;2.93;100.00;101655.34;5113235;28;20027;-73
2023/01/25 00:56:22;;;;;;;187.90;87.78;;;;;;;2.68;100.00;101615.44;5113257;28;20027;-73
2023/01/25 00:58:47;;;;;;;191.98;89.00;;;;;;;2.97;100.00;101652.84;5113094;28;20547;-73
2023/01/25 01:01:13;;;;;;;1221.78;570.75;;;;;;;2.84;100.00;101616.59;5112924;28;20391;-73
2023/01/25 01:03:38;;;;;;;391.17;170.38;;;;;;;2.81;100.00;101604.53;5112959;28;20081;-72
2023/01/25 01:06:09;;;;;;;270.48;121.28;;;;;;;3.02;100.00;101629.75;5113429;28;20031;-72
2023/01/25 01:08:39;;;;;;;237.13;106.13;;;;;;;3.08;100.00;101629.84;5112758;28;20027;-73
2023/01/25 01:11:07;;;;;;;344.90;152.07;;;;;;;3.07;100.00;101632.38;5112887;28;20059;-73
2023/01/25 01:13:33;;;;;;;312.60;141.85;;;;;;;2.92;100.00;101602.13;5112568;28;20110;-73
2023/01/25 01:16:03;;;;;;;171.48;81.18;;;;;;;3.11;100.00;101619.59;5112655;28;20458;-73
2023/01/25 01:18:33;;;;;;;177.90;81.72;;;;;;;3.13;100.00;101624.78;5112164;28;20023;-73
2023/01/25 01:20:58;;;;;;;383.40;177.63;;;;;;;2.97;100.00;101598.78;5112803;28;20028;-73
2023/01/25 01:23:24;;;;;;;245.48;104.63;;;;;;;2.97;100.00;101601.34;5112541;28;20078;-73
2023/01/25 01:25:49;;;;;;;196.98;95.07;;;;;;;3.13;100.00;101620.50;5112838;28;20296;-73
2023/01/25 01:28:15;;;;;;;177.55;87.72;;;;;;;3.14;100.00;101611.91;5112616;28;20055;-73
2023/01/25 01:30:40;;;;;;;177.88;87.90;;;;;;;2.97;100.00;101593.63;5112573;28;20024;-73
2023/01/25 01:33:05;;;;;;;293.60;149.38;;;;;;;3.15;100.00;101610.19;5112776;28;20034;-73
2023/01/25 01:35:31;;;;;;;222.48;107.40;;;;;;;2.98;100.00;101576.47;5112486;28;20016;-73
2023/01/25 01:37:57;;;;;;;173.75;85.90;;;;;;;3.13;100.00;101605.03;5112603;28;20020;-73
2023/01/25 01:40:23;;;;;;;167.32;84.40;;;;;;;3.16;100.00;101599.94;5112729;28;20023;-73
2023/01/25 01:43:14;;;;;;;166.07;78.53;;;;;;;3.08;100.00;101586.09;5110743;28;20042;-72
2023/01/25 01:45:55;;;;;;;159.35;81.38;;;;;;;3.15;100.00;101599.91;5111057;28;20363;-73
2023/01/25 01:48:23;;;;;;;150.75;70.78;;;;;;;3.20;100.00;101598.25;5112397;28;20110;-73
2023/01/25 01:50:54;;;;;;;160.43;80.30;;;;;;;3.20;100.00;101605.97;5112143;28;20436;-73
2023/01/25 01:53:23;;;;;;;166.38;82.05;;;;;;;3.18;100.00;101600.81;5112308;28;20081;-73
2023/01/25 01:55:49;;;;;;;153.25;72.47;;;;;;;3.17;100.00;101596.53;5112249;28;20019;-73
2023/01/25 01:58:15;;;;;;;146.20;69.25;;;;;;;3.19;100.00;101597.38;5112150;28;20449;-73
2023/01/25 02:00:40;;;;;;;136.35;68.82;;;;;;;3.15;100.00;101581.88;5112147;28;20111;-73
2023/01/25 02:03:08;;;;;;;141.65;68.72;;;;;;;3.27;100.00;101599.22;5112297;28;20024;-73
2023/01/25 02:05:39;;;;;;;147.43;71.18;;;;;;;3.27;100.00;101589.78;5111999;28;20063;-73
2023/01/25 02:08:08;;;;;;;147.00;71.78;;;;;;;3.18;100.00;101579.34;5112157;28;20027;-73
2023/01/25 02:10:35;;;;;;;151.52;73.47;;;;;;;3.24;100.00;101588.06;5112095;28;20114;-73
2023/01/25 02:13:01;;;;;;;113.50;56.85;;;;;;;3.13;100.00;101578.44;5112271;28;20023;-73
2023/01/25 02:15:32;;;;;;;124.85;60.20;;;;;;;3.04;100.00;101570.56;5112197;28;20024;-73
2023/01/25 02:17:57;;;;;;;130.38;61.65;;;;;;;3.05;100.00;101573.16;5112162;28;20023;-73
2023/01/25 02:20:47;;;;;;;124.60;61.47;;;;;;;3.16;100.00;101593.91;5112041;28;20089;-73
2023/01/25 02:23:25;;;;;;;134.77;63.88;;;;;;;3.19;100.00;101593.97;5048603;28;20045;-73
2023/01/25 02:25:51;;;;;;;130.77;65.90;;;;;;;3.22;100.00;101601.72;5048709;28;20165;-73
2023/01/25 02:28:31;;;;;;;163.15;81.15;;;;;;;3.07;100.00;101571.47;5050249;28;20127;-73
2023/01/25 02:30:57;;;;;;;129.18;65.70;;;;;;;3.22;100.00;101605.16;5052994;28;20033;-73
2023/01/25 02:33:24;;;;;;;136.30;66.88;;;;;;;3.24;100.00;101595.78;5052931;28;20469;-73
2023/01/25 02:35:55;;;;;;;116.15;58.95;;;;;;;3.25;100.00;101594.94;5052783;28;20080;-73
2023/01/25 02:38:21;;;;;;;115.78;56.50;;;;;;;3.00;100.00;101572.22;5052811;28;20045;-73
2023/01/25 02:41:07;;;;;;;113.78;54.45;;;;;;;3.07;100.00;101591.19;5052510;28;20063;-73
2023/01/25 02:43:34;;;;;;;112.57;56.58;;;;;;;3.09;100.00;101590.38;5052373;28;20025;-72
2023/01/25 02:46:10;;;;;;;114.10;58.42;;;;;;;3.09;100.00;101580.09;5052639;28;20025;-73
2023/01/25 02:48:36;;;;;;;133.98;62.42;;;;;;;3.00;100.00;101585.09;5052452;28;20306;-73
2023/01/25 02:51:05;;;;;;;125.78;61.72;;;;;;;2.89;100.00;101560.91;5052590;28;20208;-73
2023/01/25 02:53:30;;;;;;;128.18;62.83;;;;;;;2.92;100.00;101553.22;5052206;28;20427;-73
2023/01/25 02:55:55;;;;;;;133.13;65.07;;;;;;;3.06;100.00;101587.75;5052450;28;20029;-73
2023/01/25 02:58:20;;;;;;;130.85;65.15;;;;;;;3.03;100.00;101579.13;5052327;28;20112;-73
2023/01/25 03:00:46;;;;;;;119.13;60.45;;;;;;;2.96;100.00;101555.00;5099063;28;20042;-73
2023/01/25 03:03:11;;;;;;;144.07;77.70;;;;;;;2.98;100.00;101561.03;5115672;28;20034;-73
2023/01/25 03:05:37;;;;;;;132.02;69.35;;;;;;;3.07;100.00;101581.75;5115102;28;20028;-73
2023/01/25 03:08:02;;;;;;;143.35;67.30;;;;;;;3.11;100.00;101583.53;5115332;28;20024;-73
2023/01/25 03:10:27;;;;;;;155.32;71.45;;;;;;;2.93;100.00;101583.28;5115175;28;20028;-73
2023/01/25 03:12:53;;;;;;;161.98;74.95;;;;;;;2.83;100.00;101550.53;5115198;28;20023;-73
2023/01/25 03:15:18;;;;;;;149.38;69.50;;;;;;;2.92;100.00;101555.81;5115138;28;20054;-73
2023/01/25 03:17:43;;;;;;;151.95;68.68;;;;;;;2.92;100.00;101551.53;5114723;28;20404;-73
2023/01/25 03:20:09;;;;;;;149.82;70.38;;;;;;;3.01;100.00;101550.78;5115070;28;20027;-73
2023/01/25 03:22:35;;;;;;;166.75;77.03;;;;;;;2.96;100.00;101534.41;5114853;28;20088;-73
2023/01/25 03:25:00;;;;;;;154.75;74.72;;;;;;;3.06;100.00;101554.28;5114873;28;20020;-73
2023/01/25 03:27:28;;;;;;;156.23;73.05;;;;;;;3.03;100.00;101555.94;5115196;28;20435;-73
2023/01/25 03:29:53;;;;;;;154.90;73.32;;;;;;;2.93;100.00;101527.50;5114777;27;20051;-72
2023/01/25 03:32:19;;;;;;;159.82;73.90;;;;;;;3.11;100.00;101551.78;5114946;28;20108;-73
2023/01/25 03:34:44;;;;;;;165.88;75.60;;;;;;;2.92;100.00;101527.50;5114636;28;20128;-73
2023/01/25 03:37:09;;;;;;;164.10;76.22;;;;;;;2.90;100.00;101530.03;5114768;28;20038;-73
2023/01/25 03:39:35;;;;;;;156.48;76.53;;;;;;;3.06;100.00;101548.28;5113864;28;20020;-73
2023/01/25 03:42:00;;;;;;;195.25;87.60;;;;;;;2.91;100.00;101530.91;5114899;28;20027;-73
2023/01/25 03:44:25;;;;;;;189.27;88.65;;;;;;;2.85;100.00;101520.53;5114744;28;20028;-73
2023/01/25 03:46:51;;;;;;;179.80;86.15;;;;;;;2.81;100.00;101523.88;5114432;28;20027;-73
2023/01/25 03:49:17;;;;;;;144.23;72.85;;;;;;;2.80;100.00;101507.59;5114725;28;20102;-72
2023/01/25 03:51:42;;;;;;;164.48;76.28;;;;;;;2.95;100.00;101535.25;5114276;28;20463;-73
2023/01/25 03:54:09;;;;;;;263.45;96.75;;;;;;;2.71;100.00;101492.88;5114425;28;20110;-73
2023/01/25 03:56:35;;;;;;;205.00;84.18;;;;;;;3.02;100.00;101528.47;5114348;28;20030;-73
2023/01/25 03:59:00;;;;;;;159.27;74.57;;;;;;;2.97;100.00;101531.00;5114415;28;20378;-73
2023/01/25 04:01:26;;;;;;;154.70;73.10;;;;;;;2.91;100.00;101526.63;5114698;28;20023;-73
2023/01/25 04:03:51;;;;;;;155.30;71.75;;;;;;;2.74;100.00;101492.06;5114214;28;20032;-73
2023/01/25 04:06:16;;;;;;;148.65;69.55;;;;;;;2.86;100.00;101523.09;5114227;28;20029;-73
2023/01/25 04:08:41;;;;;;;143.35;67.30;;;;;;;2.65;100.00;101507.34;5114130;28;20028;-73
2023/01/25 04:11:09;;;;;;;143.18;68.07;;;;;;;2.80;100.00;101523.03;5114382;28;20024;-73
2023/01/25 04:13:36;;;;;;;145.73;70.85;;;;;;;2.65;100.00;101479.03;5114292;28;20024;-73
2023/01/25 04:16:10;;;;;;;140.80;63.75;;;;;;;2.93;100.00;101516.34;5114207;28;20028;-73
2023/01/25 04:18:36;;;;;;;144.50;65.32;;;;;;;2.85;100.00;101492.22;5113770;28;20106;-73
2023/01/25 04:21:02;;;;;;;138.32;66.07;;;;;;;2.88;100.00;101485.41;5113865;28;20102;-73
2023/01/25 04:23:27;;;;;;;190.45;83.45;;;;;;;2.94;100.00;101495.78;5113589;28;20126;-73
2023/01/25 04:25:58;;;;;;;149.35;71.03;;;;;;;3.01;100.00;101494.16;5113750;28;20024;-73
2023/01/25 04:28:24;;;;;;;157.57;72.17;;;;;;;3.08;100.00;101502.84;5113863;28;20028;-72
2023/01/25 04:30:49;;;;;;;129.38;59.00;;;;;;;3.00;100.00;101488.16;5113487;28;20534;-73
2023/01/25 04:33:15;;;;;;;171.63;73.65;;;;;;;2.99;100.00;101482.97;5113789;28;20379;-73
2023/01/25 04:35:40;;;;;;;164.73;68.20;;;;;;;3.08;100.00;101505.41;5113148;28;20386;-73
2023/01/25 04:38:05;;;;;;;163.15;68.97;;;;;;;2.92;100.00;101481.16;5113350;28;20024;-73
2023/01/25 04:40:31;;;;;;;147.50;67.03;;;;;;;3.09;100.00;101504.56;5113644;28;20471;-73
2023/01/25 04:42:57;;;;;;;134.80;63.28;;;;;;;3.11;100.00;101508.00;5113271;28;20085;-73
2023/01/25 04:45:24;;;;;;;131.27;62.40;;;;;;;3.10;100.00;101498.56;5113421;28;20038;-73
2023/01/25 04:47:55;;;;;;;138.15;62.35;;;;;;;3.14;100.00;101487.47;5113202;28;20027;-73
2023/01/25 04:50:20;;;;;;;133.63;62.67;;;;;;;3.13;100.00;101483.16;5113243;28;20027;-73
2023/01/25 04:52:45;;;;;;;130.13;60.75;;;;;;;3.03;100.00;101466.72;5112788;28;20268;-73
2023/01/25 04:55:11;;;;;;;131.63;61.08;;;;;;;3.12;100.00;101491.72;5113388;28;20019;-72
2023/01/25 04:57:36;;;;;;;136.27;64.55;;;;;;;3.12;100.00;101489.13;5113285;28;20027;-73
2023/01/25 05:00:02;;;;;;;130.70;61.92;;;;;;;3.02;100.00;101482.16;5112874;28;20478;-73
2023/01/25 05:02:27;;;;;;;143.15;61.38;;;;;;;2.95;100.00;101481.19;5113130;28;20034;-73
2023/01/25 05:04:53;;;;;;;129.80;62.28;;;;;;;2.84;100.00;101455.31;5112647;28;20390;-73
2023/01/25 05:07:18;;;;;;;123.25;57.75;;;;;;;2.91;100.00;101464.00;5113471;28;20374;-73
2023/01/25 05:09:43;;;;;;;160.10;76.43;;;;;;;2.89;100.00;101458.81;5112872;28;20034;-73
2023/01/25 05:12:12;;;;;;;164.82;81.25;;;;;;;2.88;100.00;101456.22;5112889;28;20026;-73
2023/01/25 05:14:38;;;;;;;169.90;78.10;;;;;;;2.97;100.00;101469.22;5112985;28;20102;-73
2023/01/25 05:17:05;;;;;;;152.13;73.28;;;;;;;2.94;100.00;101458.88;5112838;28;20027;-73
2023/01/25 05:19:31;;;;;;;125.32;60.58;;;;;;;2.96;100.00;101450.34;5112696;28;20031;-73
2023/01/25 05:21:56;;;;;;;120.90;56.22;;;;;;;3.05;100.00;101467.63;5112478;28;20043;-73
2023/01/25 05:24:22;;;;;;;190.65;84.80;;;;;;;3.12;100.00;101469.44;5112890;28;20097;-73
2023/01/25 05:26:59;;;;;;;266.88;111.90;;;;;;;3.08;100.00;101464.22;5112489;28;20031;-73
2023/01/25 05:29:34;;;;;;;198.05;86.25;;;;;;;2.89;100.00;101437.38;5112931;28;20498;-73
2023/01/25 05:32:01;;;;;;;136.10;62.92;;;;;;;2.97;100.00;101464.06;5112435;28;20119;-73
2023/01/25 05:34:26;;;;;;;120.47;56.30;;;;;;;3.02;100.00;101475.28;5112933;28;20484;-73
2023/01/25 05:36:52;;;;;;;112.35;54.60;;;;;;;3.00;100.00;101464.13;5112525;28;20114;-73
2023/01/25 05:39:17;;;;;;;93.65;47.83;;;;;;;2.95;100.00;101468.31;5112691;28;20392;-73
2023/01/25 05:41:42;;;;;;;100.32;49.75;;;;;;;2.86;100.00;101429.59;5112411;28;20032;-73
2023/01/25 05:44:08;;;;;;;94.57;45.33;;;;;;;2.89;100.00;101461.38;5112476;28;20431;-73
2023/01/25 05:46:33;;;;;;;143.40;67.53;;;;;;;2.94;100.00;101466.59;5112415;28;20165;-73
2023/01/25 05:48:59;;;;;;;70.97;35.30;;;;;;;2.86;100.00;101437.31;5112126;28;20024;-73
2023/01/25 05:51:24;;;;;;;74.43;40.28;;;;;;;2.76;100.00;101436.34;5112600;28;20469;-73
2023/01/25 05:53:49;;;;;;;71.40;33.67;;;;;;;2.75;100.00;101442.34;5112253;28;20390;-73
2023/01/25 05:56:15;;;;;;;58.30;30.23;;;;;;;2.71;100.00;101448.28;5112458;28;20031;-73
2023/01/25 05:58:40;;;;;;;56.88;29.60;;;;;;;2.70;100.00;101452.56;5112242;28;20020;-73
2023/01/25 06:01:07;;;;;;;51.47;23.65;;;;;;;2.77;100.00;101447.50;5112058;28;20032;-73
2023/01/25 06:03:33;;;;;;;50.35;25.85;;;;;;;2.74;100.00;101417.44;5114215;28;20030;-73
2023/01/25 06:06:03;;;;;;;46.20;24.60;;;;;;;2.90;100.00;101431.38;5116474;28;20028;-73
2023/01/25 06:08:30;;;;;;;44.88;23.92;;;;;;;2.84;100.00;101411.56;5116577;28;20482;-73
2023/01/25 06:10:56;;;;;;;59.78;29.17;;;;;;;2.97;100.00;101438.34;5116268;28;20464;-73
2023/01/25 06:13:21;;;;;;;70.80;36.05;;;;;;;2.76;100.00;101395.16;5116401;28;20122;-73
2023/01/25 06:15:54;;;;;;;68.47;36.67;;;;;;;2.98;100.00;101433.19;5116012;28;20038;-73
2023/01/25 06:18:20;;;;;;;66.35;34.38;;;;;;;3.02;100.00;101434.09;5116643;28;20024;-73
2023/01/25 06:20:46;;;;;;;63.58;33.17;;;;;;;3.03;100.00;101430.69;5116021;28;20036;-73
2023/01/25 06:23:12;;;;;;;65.10;33.42;;;;;;;3.06;100.00;101432.44;5116111;28;20035;-73
2023/01/25 06:25:37;;;;;;;56.38;31.55;;;;;;;3.04;100.00;101429.00;5116240;28;20032;-73
2023/01/25 06:28:03;;;;;;;59.20;32.83;;;;;;;3.12;100.00;101435.97;5115884;28;20027;-73
2023/01/25 06:30:28;;;;;;;61.83;34.10;;;;;;;3.03;100.00;101420.38;5115994;28;20054;-73
2023/01/25 06:32:53;;;;;;;64.00;34.60;;;;;;;3.14;100.00;101435.97;5115965;27;20032;-72
2023/01/25 06:35:19;;;;;;;51.80;30.23;;;;;;;2.93;100.00;101409.13;5116357;28;20100;-73
2023/01/25 06:37:45;;;;;;;61.50;32.38;;;;;;;3.00;100.00;101438.38;5115890;28;20028;-73
2023/01/25 06:40:10;;;;;;;61.78;32.70;;;;;;;2.96;100.00;101437.47;5114699;28;20062;-73
2023/01/25 06:42:36;;;;;;;50.97;26.73;;;;;;;3.05;100.00;101435.88;5115995;28;20034;-72
2023/01/25 06:45:01;;;;;;;45.08;25.42;;;;;;;2.82;100.00;101399.53;5115551;28;20173;-73
2023/01/25 06:47:26;;;;;;;59.33;31.45;;;;;;;3.05;100.00;101433.28;5115977;28;20051;-73
2023/01/25 06:49:52;;;;;;;61.63;36.30;;;;;;;2.88;100.00;101407.34;5115596;28;20110;-73
2023/01/25 06:52:17;;;;;;;61.55;32.22;;;;;;;2.85;100.00;101408.16;5115761;28;20138;-72
2023/01/25 06:54:42;;;;;;;60.72;32.80;;;;;;;2.89;100.00;101409.06;5115546;28;20469;-73
2023/01/25 06:57:10;;;;;;;60.15;32.80;;;;;;;3.07;100.00;101435.03;5115256;28;20047;-73
2023/01/25 06:59:36;;;;;;;60.72;31.90;;;;;;;3.11;100.00;101430.78;5115338;28;20041;-73
2023/01/25 07:02:01;;;;;;;55.40;29.48;;;;;;;3.02;100.00;101410.94;5115413;28;20024;-73
2023/01/25 07:04:27;;;;;;;47.08;26.80;;;;;;;2.94;100.00;101399.69;5115749;28;20038;-72
2023/01/25 07:06:52;;;;;;;57.47;30.13;;;;;;;2.96;100.00;101401.44;5115266;28;20046;-72
2023/01/25 07:09:22;;;;;;;56.75;31.40;;;;;;;3.12;100.00;101412.78;5115737;28;20034;-72
2023/01/25 07:11:48;;;;;;;53.40;31.02;;;;;;;3.13;100.00;101414.53;5114933;28;20464;-73
2023/01/25 07:14:13;;;;;;;46.92;23.20;;;;;;;2.94;100.00;101415.97;5115142;28;20045;-73
2023/01/25 07:16:39;;;;;;;54.78;29.38;;;;;;;2.90;100.00;101406.50;5115362;28;20368;-73
2023/01/25 07:19:06;;;;;;;46.22;26.25;;;;;;;2.75;100.00;101391.72;5115066;28;20020;-72
2023/01/25 07:21:32;;;;;;;57.58;29.25;;;;;;;2.74;100.00;101390.00;5114946;28;20027;-72
2023/01/25 07:24:02;;;;;;;58.33;32.85;;;;;;;2.67;100.00;101382.19;5114913;28;20081;-73
2023/01/25 07:26:28;;;;;;;62.40;39.55;;;;;;;2.82;100.00;101407.25;5114989;28;20103;-72
2023/01/25 07:28:55;;;;;;;67.40;38.15;;;;;;;2.58;100.00;101364.06;5114939;28;20020;-72
2023/01/25 07:31:21;;;;;;;49.60;28.55;;;;;;;2.78;100.00;101403.75;5115335;28;20092;-72
2023/01/25 07:33:51;;;;;;;66.60;36.75;;;;;;;2.82;100.00;101400.38;5115006;28;20015;-72
2023/01/25 07:36:17;;;;;;;61.40;35.67;;;;;;;2.78;100.00;101387.47;5114773;28;20081;-72
2023/01/25 07:38:42;;;;;;;58.10;28.83;;;;;;;2.72;100.00;101388.25;5114656;28;20031;-73
2023/01/25 07:41:08;;;;;;;68.03;34.80;;;;;;;2.84;100.00;101393.56;5114417;28;20032;-73
2023/01/25 07:43:33;;;;;;;69.38;33.63;;;;;;;2.57;100.00;101354.59;5114866;28;20027;-73
2023/01/25 07:46:09;;;;;;;66.07;32.50;;;;;;;2.78;100.00;101402.91;5114415;28;20040;-73
2023/01/25 07:48:35;;;;;;;55.65;28.23;;;;;;;2.49;100.00;101378.53;5114814;28;20066;-73
2023/01/25 07:51:21;;;;;;;60.42;34.85;;;;;;;2.72;100.00;101404.53;5114320;28;20427;-72
2023/01/25 07:53:48;;;;;;;51.08;29.23;;;;;;;2.63;100.00;101372.69;5114414;28;20104;-73
2023/01/25 07:56:13;;;;;;;59.55;30.00;;;;;;;2.77;100.00;101386.59;5114420;28;20104;-72
2023/01/25 07:58:39;;;;;;;55.80;28.67;;;;;;;2.80;100.00;101385.78;5114298;28;20023;-73
2023/01/25 08:01:09;;;;;;;61.22;35.03;;;;;;;2.71;100.00;101356.50;5114235;28;20023;-73
2023/01/25 08:03:34;;;;;;;68.63;38.60;;;;;;;2.44;100.00;101354.47;5114315;28;20016;-73
2023/01/25 08:06:00;;;;;;;56.58;31.73;;;;;;;2.24;100.00;101385.00;5112784;28;20433;-73
2023/01/25 08:08:26;;;;;;;62.80;31.58;;;;;;;1.97;100.00;101369.16;5114123;28;20271;-73
2023/01/25 08:10:51;;;;;;;55.38;31.63;;;;;;;1.53;100.00;101351.31;5114028;28;20520;-73
2023/01/25 08:13:17;;;;;;;61.45;34.60;;;;;;;1.36;100.00;101357.84;5114468;28;20433;-73
2023/01/25 08:15:42;;;;;;;72.50;36.67;;;;;;;1.44;100.00;101384.53;5114134;27;20027;-73
2023/01/25 08:18:08;;;;;;;65.45;34.78;;;;;;;1.33;100.00;101396.28;5113924;28;20077;-73
2023/01/25 08:20:33;;;;;;;58.50;30.83;;;;;;;1.28;100.00;101392.78;5114067;28;20036;-73
2023/01/25 08:22:58;;;;;;;75.35;38.10;;;;;;;1.26;100.00;101395.28;5113789;28;20487;-72
2023/01/25 08:25:24;;;;;;;61.47;31.35;;;;;;;1.28;100.00;101383.38;5113381;28;20459;-73
2023/01/25 08:27:51;;;;;;;68.82;31.90;;;;;;;1.25;100.00;101388.44;5113823;28;20028;-73
2023/01/25 08:30:16;;;;;;;62.03;31.02;;;;;;;1.16;100.00;101366.03;5113916;28;20023;-73
2023/01/25 08:32:42;;;;;;;61.70;29.60;;;;;;;1.10;100.00;101363.34;5113742;28;20032;-73
2023/01/25 08:35:07;;;;;;;59.03;30.13;;;;;;;1.07;100.00;101353.03;5113429;28;20467;-73
2023/01/25 08:37:33;;;;;;;64.40;30.17;;;;;;;1.23;100.00;101378.16;5113525;28;20133;-72
2023/01/25 08:39:58;;;;;;;59.00;28.20;;;;;;;0.96;100.00;101319.44;5113549;28;20019;-73
2023/01/25 08:42:24;;;;;;;64.47;32.40;;;;;;;1.23;100.00;101360.19;5113616;28;20523;-73
2023/01/25 08:44:49;;;;;;;63.90;31.52;;;;;;;1.08;100.00;101317.97;5113473;28;20039;-73
2023/01/25 08:47:15;;;;;;;97.30;44.25;;;;;;;1.18;100.00;101323.31;5113172;28;20395;-73
2023/01/25 08:49:40;;;;;;;136.73;60.15;;;;;;;1.38;100.00;101345.88;5113280;28;20038;-72
2023/01/25 08:52:06;;;;;;;152.68;67.85;;;;;;;1.26;100.00;101318.28;5113055;28;20035;-73
2023/01/25 08:54:31;;;;;;;94.53;44.05;;;;;;;1.30;100.00;101314.06;5113538;27;20023;-72
2023/01/25 08:56:56;;;;;;;83.07;45.30;;;;;;;1.38;100.00;101323.63;5113149;28;20564;-72
2023/01/25 08:59:22;;;;;;;68.10;35.10;;;;;;;1.42;100.00;101315.16;5113226;28;20024;-73
2023/01/25 09:01:47;;;;;;;71.00;34.85;;;;;;;1.37;100.00;101297.94;5113233;28;20023;-73
2023/01/25 09:04:13;;;;;;;69.03;34.88;;;;;;;1.48;100.00;101316.97;5112725;28;20143;-73
2023/01/25 09:06:38;;;;;;;69.40;34.25;;;;;;;1.51;100.00;101314.44;5112949;28;20024;-73
2023/01/25 09:09:03;;;;;;;68.57;35.22;;;;;;;1.67;100.00;101348.97;5112719;28;20161;-73
2023/01/25 09:11:29;;;;;;;127.68;57.17;;;;;;;1.49;100.00;101314.44;5113081;28;20039;-72
2023/01/25 09:13:55;;;;;;;187.60;75.82;;;;;;;1.46;100.00;101316.94;5113095;28;20024;-73
2023/01/25 09:16:29;;;;;;;120.78;52.58;;;;;;;1.47;100.00;101307.53;5112967;28;20027;-72
2023/01/25 09:18:57;;;;;;;66.65;34.08;;;;;;;1.45;100.00;101311.78;5112641;28;20058;-73
2023/01/25 09:21:23;;;;;;;68.78;34.20;;;;;;;1.40;100.00;101311.72;5112778;28;20031;-73
2023/01/25 09:23:50;;;;;;;67.57;32.38;;;;;;;1.60;100.00;101311.16;5112923;28;20093;-73
2023/01/25 09:26:16;;;;;;;66.32;31.05;;;;;;;1.62;100.00;101299.22;5112485;28;20471;-73
2023/01/25 09:28:46;;;;;;;64.28;31.52;;;;;;;1.74;100.00;101307.13;5112813;28;20055;-73
2023/01/25 09:31:11;;;;;;;71.03;32.13;;;;;;;1.77;100.00;101317.47;5112550;28;20080;-73
2023/01/25 09:33:41;;;;;;;68.53;32.22;;;;;;;1.66;100.00;101294.16;5112622;28;20110;-73
2023/01/25 09:36:06;;;;;;;73.05;33.10;;;;;;;1.70;100.00;101307.94;5112525;28;20111;-73
2023/01/25 09:38:32;;;;;;;58.45;30.30;;;;;;;1.63;100.00;101281.25;5111571;28;20169;-73
2023/01/25 09:41:03;;;;;;;62.30;32.05;;;;;;;1.77;100.00;101319.16;5112434;28;20281;-72
2023/01/25 09:43:50;;;;;;;66.20;32.10;;;;;;;1.78;100.00;101308.91;5112353;28;20027;-73
2023/01/25 09:46:32;;;;;;;63.40;32.40;;;;;;;1.65;100.00;101309.56;5112182;28;20080;-73
2023/01/25 09:49:19;;;;;;;58.70;28.73;;;;;;;1.80;100.00;101301.22;5112422;28;20102;-73
2023/01/25 09:52:13;;;;;;;62.20;29.83;;;;;;;1.63;100.00;101278.69;5112403;28;20490;-73
2023/01/25 09:54:41;;;;;;;63.33;31.63;;;;;;;1.63;100.00;101275.25;5112331;28;20046;-73
2023/01/25 09:57:33;;;;;;;64.65;32.15;;;;;;;1.64;100.00;101277.00;5112262;28;20019;-73
2023/01/25 10:00:00;;;;;;;;;;;;;;;1.66;100.00;101295.88;5112172;28;20403;-73
2023/01/25 10:02:44;;;;;;;75.03;33.10;;;;;;;1.52;100.00;101264.84;5112333;28;19954;-73
2023/01/25 10:05:19;;;;;;;65.10;32.22;;;;;;;1.65;100.00;101283.88;5112105;28;20028;-73
2023/01/25 10:08:09;;;;;;;62.10;33.08;;;;;;;1.70;100.00;101288.22;5112356;28;20050;-73
2023/01/25 10:10:40;;;;;;;65.85;31.60;;;;;;;1.59;100.00;101261.50;5112307;28;20096;-73
2023/01/25 10:13:11;;;;;;;61.60;33.35;;;;;;;1.50;100.00;101251.97;5111983;28;20100;-73
2023/01/25 10:16:05;;;;;;;67.18;35.50;;;;;;;1.63;100.00;101280.41;5112069;28;20020;-73
2023/01/25 10:18:45;;;;;;;71.65;35.10;;;;;;;1.44;100.00;101240.75;5112255;28;20020;-72
2023/01/25 10:21:39;;;;;;;63.33;32.33;;;;;;;1.66;100.00;101275.31;5112105;28;20027;-73
2023/01/25 10:24:23;;;;;;;67.65;35.67;;;;;;;1.69;100.00;101276.25;5111742;28;20511;-73
2023/01/25 10:26:55;;;;;;;69.68;35.97;;;;;;;1.82;100.00;101272.16;5112128;28;20353;-73
2023/01/25 10:29:32;;;;;;;66.65;33.17;;;;;;;1.89;100.00;101262.81;5112231;28;20482;-73
2023/01/25 10:32:11;;;;;;;84.95;45.97;;;;;;;1.81;100.00;101266.97;5097343;28;20025;-73
2023/01/25 10:34:43;;;;;;;68.55;34.85;;;;;;;1.76;100.00;101251.50;5091434;28;20133;-73
2023/01/25 10:37:22;;;;;;;62.63;32.95;;;;;;;1.81;100.00;101241.28;5091447;28;20112;-73
2023/01/25 10:39:57;;;;;;;56.28;29.38;;;;;;;1.98;100.00;101263.84;5091454;28;20028;-73
2023/01/25 10:42:26;;;;;;;54.22;28.83;;;;;;;1.89;100.00;101257.69;5091270;28;20039;-73
2023/01/25 10:44:51;;;;;;;66.75;33.55;;;;;;;1.92;100.00;101255.16;5091707;28;20375;-73
2023/01/25 10:47:23;;;;;;;74.57;35.63;;;;;;;1.89;100.00;101247.41;5091499;28;20028;-73
2023/01/25 10:49:57;;;;;;;67.18;36.42;;;;;;;2.04;100.00;101246.75;5093753;28;20067;-73
2023/01/25 10:52:23;;;;;;;65.75;32.60;;;;;;;1.86;100.00;101198.56;5113116;28;20055;-73
2023/01/25 10:55:11;;;;;;;62.03;30.02;;;;;;;2.17;100.00;101243.50;5115516;28;20028;-73
2023/01/25 10:57:41;;;;;;;77.32;40.15;;;;;;;2.02;100.00;101239.00;5115748;28;20020;-73
2023/01/25 11:00:21;;;;;;;62.53;29.75;;;;;;;1.82;100.00;101215.63;5115242;28;20019;-73
2023/01/25 11:02:47;;;;;;;59.83;30.40;;;;;;;1.84;100.00;101210.50;5115452;28;20035;-73
2023/01/25 11:05:18;;;;;;;59.40;31.17;;;;;;;1.99;100.00;101237.28;5115035;28;20038;-73
2023/01/25 11:07:45;;;;;;;64.57;33.03;;;;;;;2.00;100.00;101217.59;5115557;28;20439;-73
2023/01/25 11:10:31;;;;;;;59.65;31.00;;;;;;;2.02;100.00;101222.72;5115287;27;20028;-73